createdAt,value
2018-07-04T03:17:39.986Z,1002.54
2018-07-04T03:18:39.960Z,1002.50
2018-07-04T03:19:39.954Z,1002.55
2018-07-04T03:20:39.947Z,1002.52
2018-07-04T03:21:39.956Z,1002.54
2018-07-04T03:22:39.948Z,1002.54
2018-07-04T03:23:39.950Z,1002.57
2018-07-04T03:24:39.947Z,1002.53
2018-07-04T03:25:39.946Z,1002.57
2018-07-04T03:26:39.975Z,1002.55
2018-07-04T03:27:39.975Z,1002.56
2018-07-04T03:28:39.970Z,1002.50
2018-07-04T03:29:39.967Z,1002.57
2018-07-04T03:30:39.963Z,1002.53
2018-07-04T03:31:39.972Z,1002.50
2018-07-04T03:32:39.963Z,1002.53
2018-07-04T03:33:39.963Z,1002.54
2018-07-04T03:34:39.970Z,1002.55
2018-07-04T03:35:39.974Z,1002.57
2018-07-04T03:36:39.976Z,1002.56
2018-07-04T03:37:39.980Z,1002.59
2018-07-04T03:38:39.972Z,1002.59
2018-07-04T03:39:39.984Z,1002.62
2018-07-04T03:40:39.983Z,1002.62
2018-07-04T03:41:40.005Z,1002.61
2018-07-04T03:42:39.988Z,1002.65
2018-07-04T03:43:40.028Z,1002.63
2018-07-04T03:44:39.998Z,1002.61
2018-07-04T03:45:40.004Z,1002.64
2018-07-04T03:46:40.013Z,1002.65
2018-07-04T03:47:40.017Z,1002.66
2018-07-04T03:48:40.015Z,1002.71
2018-07-04T03:49:40.030Z,1002.69
2018-07-04T03:50:40.023Z,1002.72
2018-07-04T03:51:40.019Z,1002.71
2018-07-04T03:52:40.026Z,1002.72
2018-07-04T03:53:40.040Z,1002.71
2018-07-04T03:54:40.031Z,1002.71
2018-07-04T03:55:40.050Z,1002.72
2018-07-04T03:56:40.057Z,1002.69
2018-07-04T03:57:40.064Z,1002.72
2018-07-04T03:58:40.048Z,1002.70
2018-07-04T03:59:40.064Z,1002.68
2018-07-04T04:00:40.047Z,1002.70
2018-07-04T04:01:40.054Z,1002.70
2018-07-04T04:02:40.049Z,1002.71
2018-07-04T04:03:40.058Z,1002.75
2018-07-04T04:04:40.082Z,1002.71
2018-07-04T04:05:40.060Z,1002.73
2018-07-04T04:06:40.069Z,1002.74
2018-07-04T04:07:40.073Z,1002.74
2018-07-04T04:08:40.074Z,1002.74
2018-07-04T04:09:40.087Z,1002.76
2018-07-04T04:10:40.177Z,1002.73
2018-07-04T04:11:40.085Z,1002.77
2018-07-04T04:12:40.088Z,1002.76
2018-07-04T04:13:40.090Z,1002.78
2018-07-04T04:14:40.091Z,1002.77
2018-07-04T04:15:40.128Z,1002.76
2018-07-04T04:16:40.106Z,1002.81
2018-07-04T04:17:40.108Z,1002.78
2018-07-04T04:18:40.112Z,1002.79
2018-07-04T04:19:40.115Z,1002.79
2018-07-04T04:20:40.130Z,1002.77
2018-07-04T04:21:40.122Z,1002.78
2018-07-04T04:22:40.120Z,1002.79
2018-07-04T04:23:40.140Z,1002.78
2018-07-04T04:24:40.137Z,1002.79
2018-07-04T04:25:40.135Z,1002.81
2018-07-04T04:26:40.144Z,1002.79
2018-07-04T04:27:40.141Z,1002.78
2018-07-04T04:28:40.141Z,1002.76
2018-07-04T04:29:40.148Z,1002.79
2018-07-04T04:30:40.179Z,1002.77
2018-07-04T04:31:40.156Z,1002.78
2018-07-04T04:32:40.167Z,1002.79
2018-07-04T04:33:40.166Z,1002.79
2018-07-04T04:34:40.169Z,1002.80
2018-07-04T04:35:40.180Z,1002.81
2018-07-04T04:36:40.183Z,1002.80
2018-07-04T04:37:40.183Z,1002.83
2018-07-04T04:38:40.186Z,1002.81
2018-07-04T04:39:40.194Z,1002.83
2018-07-04T04:40:40.208Z,1002.83
2018-07-04T04:41:40.204Z,1002.86
2018-07-04T04:42:40.204Z,1002.88
2018-07-04T04:43:40.215Z,1002.90
2018-07-04T04:46:03.469Z,1002.83
2018-07-04T04:47:03.460Z,1002.82
2018-07-04T04:48:03.472Z,1002.82
2018-07-04T04:49:03.495Z,1002.86
2018-07-04T04:50:03.485Z,1002.84
2018-07-04T04:51:03.487Z,1002.84
2018-07-04T04:52:03.510Z,1002.85
2018-07-04T04:53:12.138Z,1002.86
2018-07-04T04:54:56.924Z,1002.87
2018-07-04T04:55:56.956Z,1002.92
2018-07-04T04:56:56.935Z,1002.90
2018-07-04T04:57:56.968Z,1002.88
2018-07-04T04:58:56.966Z,1002.83
2018-07-04T04:59:56.951Z,1002.82
2018-07-04T05:00:56.937Z,1002.83
2018-07-04T05:01:56.943Z,1002.82
2018-07-04T05:02:56.975Z,1002.81
2018-07-04T05:03:56.999Z,1002.81
2018-07-04T05:04:56.973Z,1002.81
2018-07-04T05:05:57.023Z,1002.83
2018-07-04T05:06:57.005Z,1002.85
2018-07-04T05:07:57.014Z,1002.84
2018-07-04T05:08:57.009Z,1002.84
2018-07-04T05:09:57.047Z,1002.89
2018-07-04T05:10:57.048Z,1002.88
2018-07-04T05:11:57.038Z,1002.81
2018-07-04T05:12:57.078Z,1002.84
2018-07-04T05:13:57.044Z,1002.85
2018-07-04T05:14:57.035Z,1002.85
2018-07-04T05:15:57.045Z,1002.85
2018-07-04T05:16:57.051Z,1002.82
2018-07-04T05:17:57.057Z,1002.80
2018-07-04T05:18:57.070Z,1002.84
2018-07-04T05:19:57.073Z,1002.86
2018-07-04T05:20:57.124Z,1002.86
2018-07-04T05:21:57.085Z,1002.83
2018-07-04T05:22:57.094Z,1002.87
2018-07-04T05:23:57.118Z,1002.84
2018-07-04T05:24:57.107Z,1002.83
2018-07-04T05:25:57.107Z,1002.85
2018-07-04T05:26:57.121Z,1002.82
2018-07-04T05:27:57.128Z,1002.83
2018-07-04T05:28:57.133Z,1002.80
2018-07-04T05:29:57.167Z,1002.85
2018-07-04T05:30:57.154Z,1002.84
2018-07-04T05:31:57.159Z,1002.85
2018-07-04T05:32:57.173Z,1002.79
2018-07-04T05:33:57.167Z,1002.81
2018-07-04T05:34:57.178Z,1002.79
2018-07-04T05:35:57.200Z,1002.79
2018-07-04T05:36:57.212Z,1002.82
2018-07-04T05:37:57.265Z,1002.81
2018-07-04T05:38:57.249Z,1002.83
2018-07-04T05:39:57.253Z,1002.84
2018-07-04T05:40:57.280Z,1002.86
2018-07-04T05:41:57.251Z,1002.86
2018-07-04T05:42:57.285Z,1002.82
2018-07-04T05:43:57.368Z,1002.80
2018-07-04T05:44:57.272Z,1002.83
2018-07-04T05:45:57.276Z,1002.85
2018-07-04T05:46:57.299Z,1002.84
2018-07-04T05:47:57.284Z,1002.89
2018-07-04T05:48:57.544Z,1002.90
2018-07-04T05:49:57.320Z,1002.88
2018-07-04T05:50:57.313Z,1002.88
2018-07-04T05:51:57.354Z,1002.88
2018-07-04T05:52:57.322Z,1002.92
2018-07-04T05:53:57.323Z,1002.90
2018-07-04T05:54:57.334Z,1002.92
2018-07-04T05:55:57.346Z,1003.00
2018-07-04T05:56:57.417Z,1002.93
2018-07-04T05:57:57.347Z,1002.95
2018-07-04T05:58:57.421Z,1002.93
2018-07-04T05:59:57.375Z,1002.93
2018-07-04T06:00:57.375Z,1002.98
2018-07-04T06:01:57.410Z,1002.97
2018-07-04T06:02:57.395Z,1002.97
2018-07-04T06:03:57.415Z,1002.98
2018-07-04T06:04:57.413Z,1003.04
2018-07-04T06:05:57.422Z,1003.01
2018-07-04T06:06:57.479Z,1003.01
2018-07-04T06:07:57.436Z,1003.02
2018-07-04T06:08:57.427Z,1003.04
2018-07-04T06:09:57.475Z,1003.02
2018-07-04T06:10:57.436Z,1003.03
2018-07-04T06:11:57.443Z,1003.04
2018-07-04T06:12:57.463Z,1003.17
2018-07-04T06:13:57.454Z,1003.01
2018-07-04T06:14:57.515Z,1003.01
2018-07-04T06:15:57.478Z,1003.05
2018-07-04T06:16:57.523Z,1003.02
2018-07-04T06:17:57.487Z,1003.02
2018-07-04T06:18:57.487Z,1003.04
2018-07-04T06:19:57.530Z,1003.03
2018-07-04T06:20:57.530Z,1003.05
2018-07-04T06:21:57.531Z,1003.10
2018-07-04T06:22:57.531Z,1003.05
2018-07-04T06:23:57.577Z,1003.05
2018-07-04T06:24:57.519Z,1003.08
2018-07-04T06:25:57.566Z,1003.06
2018-07-04T06:26:57.556Z,1003.03
2018-07-04T06:27:57.560Z,1003.03
2018-07-04T06:28:57.560Z,1003.04
2018-07-04T06:29:57.565Z,1003.01
2018-07-04T06:30:57.559Z,1002.99
2018-07-04T06:31:57.582Z,1003.01
2018-07-04T06:32:57.602Z,1003.01
2018-07-04T06:33:57.606Z,1003.02
2018-07-04T06:34:57.598Z,1002.99
2018-07-04T06:35:57.602Z,1002.98
2018-07-04T06:36:57.623Z,1003.01
2018-07-04T06:37:57.619Z,1003.01
2018-07-04T06:38:57.621Z,1003.00
2018-07-04T06:39:57.633Z,1003.02
2018-07-04T06:40:57.642Z,1003.06
2018-07-04T06:41:57.639Z,1003.04
2018-07-04T06:42:57.640Z,1003.02
2018-07-04T06:43:57.680Z,1003.05
2018-07-04T06:44:57.662Z,1003.02
2018-07-04T06:45:57.685Z,1002.99
2018-07-04T06:46:57.675Z,1003.01
2018-07-04T06:47:57.690Z,1003.01
2018-07-04T06:48:57.719Z,1002.99
2018-07-04T06:49:57.697Z,1002.98
2018-07-04T06:50:57.700Z,1003.00
2018-07-04T06:51:57.706Z,1002.99
2018-07-04T06:52:57.719Z,1002.99
2018-07-04T06:53:57.752Z,1002.97
2018-07-04T06:54:57.743Z,1002.97
2018-07-04T06:55:57.736Z,1003.00
2018-07-04T06:56:57.734Z,1003.01
2018-07-04T06:57:57.774Z,1003.00
2018-07-04T06:58:57.838Z,1003.01
2018-07-04T06:59:57.776Z,1002.95
2018-07-04T07:00:57.793Z,1003.00
2018-07-04T07:01:57.875Z,1002.96
2018-07-04T07:02:57.812Z,1002.96
2018-07-04T07:03:57.800Z,1002.98
2018-07-04T07:04:57.819Z,1003.00
2018-07-04T07:05:57.800Z,1002.96
2018-07-04T07:06:57.807Z,1003.00
2018-07-04T07:07:57.833Z,1002.99
2018-07-04T07:08:57.848Z,1003.00
2018-07-04T07:09:57.860Z,1003.00
2018-07-04T07:10:57.853Z,1003.00
2018-07-04T07:11:57.885Z,1003.00
2018-07-04T07:12:57.892Z,1003.00
2018-07-04T07:13:57.884Z,1002.98
2018-07-04T07:14:57.881Z,1002.96
2018-07-04T07:15:57.884Z,1002.96
2018-07-04T07:16:57.882Z,1003.03
2018-07-04T07:17:57.918Z,1002.95
2018-07-04T07:18:57.930Z,1002.97
2018-07-04T07:19:57.909Z,1002.96
2018-07-04T07:20:57.935Z,1002.96
2018-07-04T07:21:57.920Z,1002.93
2018-07-04T07:22:57.918Z,1002.93
2018-07-04T07:23:57.939Z,1002.98
2018-07-04T07:24:58.002Z,1002.96
2018-07-04T07:25:57.987Z,1002.98
2018-07-04T07:26:57.945Z,1002.94
2018-07-04T07:27:57.977Z,1002.99
2018-07-04T07:28:57.987Z,1002.91
2018-07-04T07:29:58.059Z,1002.95
2018-07-04T07:30:57.991Z,1002.96
2018-07-04T07:31:57.983Z,1002.91
2018-07-04T07:32:58.001Z,1002.91
2018-07-04T07:33:58.072Z,1002.89
2018-07-04T07:34:58.044Z,1002.91
2018-07-04T07:35:58.054Z,1002.89
2018-07-04T07:36:58.018Z,1002.87
2018-07-04T07:37:58.033Z,1002.90
2018-07-04T07:38:58.065Z,1002.90
2018-07-04T07:39:58.035Z,1002.88
2018-07-04T07:40:58.076Z,1002.85
2018-07-04T07:41:58.055Z,1002.89
2018-07-04T07:42:58.097Z,1002.84
2018-07-04T07:43:58.087Z,1002.82
2018-07-04T07:44:58.105Z,1002.85
2018-07-04T07:45:58.104Z,1002.85
2018-07-04T07:46:58.125Z,1002.79
2018-07-04T07:47:58.102Z,1002.81
2018-07-04T07:48:58.127Z,1002.81
2018-07-04T07:49:58.141Z,1002.80
2018-07-04T07:50:58.154Z,1002.75
2018-07-04T07:51:58.124Z,1002.78
2018-07-04T07:52:58.150Z,1002.78
2018-07-04T07:53:58.212Z,1002.80
2018-07-04T07:54:58.157Z,1002.82
2018-07-04T07:55:58.220Z,1002.83
2018-07-04T07:56:58.205Z,1002.82
2018-07-04T07:57:58.170Z,1002.86
2018-07-04T07:58:58.185Z,1002.87
2018-07-04T07:59:58.234Z,1002.91
2018-07-04T08:00:58.279Z,1002.86
2018-07-04T08:01:58.417Z,1002.88
2018-07-04T08:02:58.248Z,1002.95
2018-07-04T08:03:58.263Z,1002.97
2018-07-04T08:04:58.211Z,1002.98
2018-07-04T08:05:58.282Z,1002.94
2018-07-04T08:06:58.255Z,1002.98
2018-07-04T08:07:58.241Z,1002.96
2018-07-04T08:08:58.238Z,1003.01
2018-07-04T08:09:58.252Z,1003.00
2018-07-04T08:10:58.261Z,1003.00
2018-07-04T08:11:58.302Z,1002.97
2018-07-04T08:12:58.265Z,1002.99
2018-07-04T08:13:58.283Z,1003.00
2018-07-04T08:14:58.310Z,1002.91
2018-07-04T08:15:58.300Z,1003.02
2018-07-04T08:16:58.365Z,1002.92
2018-07-04T08:17:58.406Z,1002.96
2018-07-04T08:18:58.344Z,1002.98
2018-07-04T08:19:58.386Z,1002.97
2018-07-04T08:20:58.324Z,1003.00
2018-07-04T08:21:58.363Z,1002.99
2018-07-04T08:22:58.374Z,1003.06
2018-07-04T08:23:58.400Z,1003.00
2018-07-04T08:24:58.421Z,1003.02
2018-07-04T08:25:58.359Z,1003.05
2018-07-04T08:26:58.425Z,1003.03
2018-07-04T08:27:58.410Z,1003.07
2018-07-04T08:28:58.383Z,1003.04
2018-07-04T08:29:58.398Z,1003.03
2018-07-04T08:30:58.400Z,1003.12
2018-07-04T08:31:58.455Z,1003.11
2018-07-04T08:32:58.411Z,1003.12
2018-07-04T08:33:58.427Z,1003.14
2018-07-04T08:34:58.426Z,1003.14
2018-07-04T08:35:58.427Z,1003.14
2018-07-04T08:36:58.513Z,1003.17
2018-07-04T08:37:58.543Z,1003.15
2018-07-04T08:38:58.490Z,1003.19
2018-07-04T08:39:58.482Z,1003.16
2018-07-04T08:40:58.461Z,1003.19
2018-07-04T08:41:58.509Z,1003.19
2018-07-04T08:42:58.490Z,1003.19
2018-07-04T08:43:58.499Z,1003.24
2018-07-04T08:44:58.519Z,1003.23
2018-07-04T08:45:58.590Z,1003.18
2018-07-04T08:46:58.535Z,1003.21
2018-07-04T08:47:58.528Z,1003.25
2018-07-04T08:48:58.518Z,1003.26
2018-07-04T08:49:58.540Z,1003.22
2018-07-04T08:50:58.540Z,1003.20
2018-07-04T08:51:58.542Z,1003.23
2018-07-04T08:52:58.678Z,1003.15
2018-07-04T08:53:58.565Z,1003.19
2018-07-04T08:54:58.589Z,1003.17
2018-07-04T08:55:58.575Z,1003.20
2018-07-04T08:56:58.578Z,1003.20
2018-07-04T08:57:58.588Z,1003.14
2018-07-04T08:58:58.601Z,1003.16
2018-07-04T08:59:58.609Z,1003.21
2018-07-04T09:00:58.616Z,1003.17
2018-07-04T09:01:58.614Z,1003.17
2018-07-04T09:02:58.634Z,1003.24
2018-07-04T09:03:58.640Z,1003.22
2018-07-04T09:04:58.640Z,1003.24
2018-07-04T09:05:58.651Z,1003.29
2018-07-04T09:06:58.656Z,1003.31
2018-07-04T09:07:58.663Z,1003.21
2018-07-04T09:08:58.668Z,1003.21
2018-07-04T09:09:58.676Z,1003.24
2018-07-04T09:10:58.681Z,1003.24
2018-07-04T09:11:58.697Z,1003.22
2018-07-04T09:12:58.700Z,1003.20
2018-07-04T09:13:58.705Z,1003.22
2018-07-04T09:14:58.748Z,1003.21
2018-07-04T09:15:58.735Z,1003.24
2018-07-04T09:16:58.748Z,1003.22
2018-07-04T09:17:58.746Z,1003.18
2018-07-04T09:18:58.747Z,1003.21
2018-07-04T09:19:58.760Z,1003.21
2018-07-04T09:20:58.761Z,1003.24
2018-07-04T09:21:58.764Z,1003.21
2018-07-04T09:22:58.778Z,1003.25
2018-07-04T09:23:58.791Z,1003.24
2018-07-04T09:24:58.787Z,1003.24
2018-07-04T09:25:58.796Z,1003.24
2018-07-04T09:26:58.811Z,1003.28
2018-07-04T09:27:58.820Z,1003.25
2018-07-04T09:28:58.828Z,1003.22
2018-07-04T09:29:58.838Z,1003.28
2018-07-04T09:30:58.850Z,1003.26
2018-07-04T09:31:58.856Z,1003.25
2018-07-04T09:32:58.861Z,1003.28
2018-07-04T09:33:58.869Z,1003.27
2018-07-04T09:34:58.869Z,1003.27
2018-07-04T09:35:58.876Z,1003.28
2018-07-04T09:36:58.886Z,1003.27
2018-07-04T09:37:58.908Z,1003.26
2018-07-04T09:38:58.908Z,1003.25
2018-07-04T09:39:58.920Z,1003.24
2018-07-04T09:40:58.922Z,1003.21
2018-07-04T09:41:58.930Z,1003.19
2018-07-04T09:42:58.942Z,1003.19
2018-07-04T09:43:58.940Z,1003.24
2018-07-04T09:44:58.955Z,1003.21
2018-07-04T09:45:58.991Z,1003.15
2018-07-04T09:46:58.976Z,1003.24
2018-07-04T09:47:58.975Z,1003.15
2018-07-04T09:48:58.982Z,1003.15
2018-07-04T09:49:58.992Z,1003.13
2018-07-04T09:50:58.998Z,1003.11
2018-07-04T09:51:59.006Z,1003.11
2018-07-04T09:52:59.021Z,1003.12
2018-07-04T09:53:59.017Z,1003.09
2018-07-04T09:54:59.029Z,1003.10
2018-07-04T09:55:59.036Z,1003.05
2018-07-04T09:56:59.064Z,1003.09
2018-07-04T09:57:59.049Z,1003.08
2018-07-04T09:58:59.071Z,1003.03
2018-07-04T09:59:59.069Z,1003.04
2018-07-04T10:00:59.079Z,1003.00
2018-07-04T10:01:59.089Z,1002.95
2018-07-04T10:02:59.095Z,1003.03
2018-07-04T10:03:59.100Z,1003.00
2018-07-04T10:04:59.115Z,1003.03
2018-07-04T10:05:59.119Z,1002.96
2018-07-04T10:06:59.122Z,1002.97
2018-07-04T10:07:59.132Z,1003.03
2018-07-04T10:08:59.144Z,1002.96
2018-07-04T10:09:59.170Z,1002.90
2018-07-04T10:10:59.155Z,1002.93
2018-07-04T10:11:59.171Z,1002.91
2018-07-04T10:12:59.174Z,1002.93
2018-07-04T10:13:59.209Z,1002.84
2018-07-04T10:14:59.229Z,1002.86
2018-07-04T10:15:59.232Z,1002.82
2018-07-04T10:16:59.211Z,1002.87
2018-07-04T10:17:59.234Z,1002.84
2018-07-04T10:18:59.242Z,1002.84
2018-07-04T10:19:59.247Z,1002.85
2018-07-04T10:20:59.248Z,1002.82
2018-07-04T10:21:59.272Z,1002.78
2018-07-04T10:22:59.272Z,1002.80
2018-07-04T10:23:59.267Z,1002.80
2018-07-04T10:24:59.300Z,1002.74
2018-07-04T10:25:59.281Z,1002.77
2018-07-04T10:26:59.299Z,1002.75
2018-07-04T10:27:59.297Z,1002.79
2018-07-04T10:28:59.314Z,1002.77
2018-07-04T10:29:59.314Z,1002.78
2018-07-04T10:30:59.318Z,1002.81
2018-07-04T10:31:59.336Z,1002.78
2018-07-04T10:32:59.411Z,1002.76
2018-07-04T10:33:59.479Z,1002.77
2018-07-04T10:34:59.443Z,1002.79
2018-07-04T10:35:59.472Z,1002.79
2018-07-04T10:36:59.384Z,1002.77
2018-07-04T10:37:59.405Z,1002.78
2018-07-04T10:38:59.387Z,1002.77
2018-07-04T10:39:59.420Z,1002.73
2018-07-04T10:40:59.620Z,1002.77
2018-07-04T10:41:59.467Z,1002.73
2018-07-04T10:42:59.423Z,1002.74
2018-07-04T10:43:59.435Z,1002.78
2018-07-04T10:44:59.455Z,1002.77
2018-07-04T10:45:59.520Z,1002.73
2018-07-04T10:46:59.485Z,1002.75
2018-07-04T10:47:59.487Z,1002.72
2018-07-04T10:48:59.494Z,1002.69
2018-07-04T10:49:59.479Z,1002.69
2018-07-04T10:50:59.539Z,1002.72
2018-07-04T10:51:59.502Z,1002.72
2018-07-04T10:52:59.535Z,1002.69
2018-07-04T10:53:59.517Z,1002.65
2018-07-04T10:55:09.170Z,1002.63
2018-07-04T10:56:53.570Z,1002.63
2018-07-04T10:57:53.564Z,1002.58
2018-07-04T10:58:53.550Z,1002.62
2018-07-04T10:59:53.566Z,1002.58
2018-07-04T11:00:53.639Z,1002.62
2018-07-04T11:01:53.573Z,1002.66
2018-07-04T11:02:53.593Z,1002.62
2018-07-04T11:03:53.609Z,1002.68
2018-07-04T11:04:53.626Z,1002.65
2018-07-04T11:05:53.616Z,1002.63
2018-07-04T11:06:53.614Z,1002.59
2018-07-04T11:07:53.691Z,1002.58
2018-07-04T11:08:53.640Z,1002.64
2018-07-04T11:09:53.645Z,1002.65
2018-07-04T11:10:53.656Z,1002.60
2018-07-04T11:11:53.655Z,1002.65
2018-07-04T11:12:53.691Z,1002.68
2018-07-04T11:13:53.718Z,1002.67
2018-07-04T11:14:53.685Z,1002.64
2018-07-04T11:15:53.690Z,1002.63
2018-07-04T11:16:53.730Z,1002.56
2018-07-04T11:17:53.729Z,1002.55
2018-07-04T11:18:53.743Z,1002.54
2018-07-04T11:19:53.752Z,1002.55
2018-07-04T11:20:53.743Z,1002.42
2018-07-04T11:21:53.740Z,1002.48
2018-07-04T11:22:53.794Z,1002.51
2018-07-04T11:23:53.755Z,1002.53
2018-07-04T11:24:53.769Z,1002.53
2018-07-04T11:25:53.776Z,1002.49
2018-07-04T11:26:53.789Z,1002.39
2018-07-04T11:27:53.826Z,1002.41
2018-07-04T11:28:53.801Z,1002.39
2018-07-04T11:29:53.838Z,1002.36
2018-07-04T11:30:53.831Z,1002.39
2018-07-04T11:31:53.827Z,1002.38
2018-07-04T11:32:53.840Z,1002.32
2018-07-04T11:33:53.845Z,1002.34
2018-07-04T11:34:53.856Z,1002.41
2018-07-04T11:35:53.866Z,1002.42
2018-07-04T11:36:53.866Z,1002.43
2018-07-04T11:37:53.884Z,1002.53
2018-07-04T11:38:53.893Z,1002.57
2018-07-04T11:39:53.918Z,1002.57
2018-07-04T11:40:53.916Z,1002.49
2018-07-04T11:41:53.910Z,1002.47
2018-07-04T11:42:53.927Z,1002.46
2018-07-04T11:43:53.967Z,1002.46
2018-07-04T11:44:53.945Z,1002.47
2018-07-04T11:45:53.947Z,1002.46
2018-07-04T11:46:53.963Z,1002.48
2018-07-04T11:47:53.964Z,1002.44
2018-07-04T11:48:53.979Z,1002.47
2018-07-04T11:49:53.991Z,1002.47
2018-07-04T11:50:53.997Z,1002.46
2018-07-04T11:51:54.006Z,1002.39
2018-07-04T11:52:54.034Z,1002.41
2018-07-04T11:53:54.029Z,1002.39
2018-07-04T11:54:54.055Z,1002.35
2018-07-04T11:55:54.045Z,1002.32
2018-07-04T11:56:54.086Z,1002.32
2018-07-04T11:57:54.064Z,1002.29
2018-07-04T11:58:54.106Z,1002.26
2018-07-04T11:59:54.096Z,1002.30
2018-07-04T12:00:54.092Z,1002.29
2018-07-04T12:01:54.098Z,1002.31
2018-07-04T12:02:54.113Z,1002.34
2018-07-04T12:03:54.137Z,1002.36
2018-07-04T12:04:54.124Z,1002.40
2018-07-04T12:05:54.131Z,1002.44
2018-07-04T12:06:54.155Z,1002.42
2018-07-04T12:07:54.156Z,1002.37
2018-07-04T12:08:54.172Z,1002.37
2018-07-04T12:09:54.193Z,1002.37
2018-07-04T12:10:54.213Z,1002.34
2018-07-04T12:12:02.831Z,1002.30
2018-07-04T12:13:47.658Z,1002.32
2018-07-04T12:14:47.615Z,1002.35
2018-07-04T12:15:47.625Z,1002.31
2018-07-04T12:16:47.626Z,1002.32
2018-07-04T12:17:47.650Z,1002.33
2018-07-04T12:18:47.657Z,1002.32
2018-07-04T12:19:47.653Z,1002.29
2018-07-04T12:20:47.667Z,1002.31
2018-07-04T12:21:47.672Z,1002.26
2018-07-04T12:22:47.686Z,1002.26
2018-07-04T12:23:47.689Z,1002.25
2018-07-04T12:24:47.705Z,1002.26
2018-07-04T12:25:47.710Z,1002.21
2018-07-04T12:26:47.790Z,1002.22
2018-07-04T12:27:47.730Z,1002.21
2018-07-04T12:28:47.739Z,1002.13
2018-07-04T12:29:47.755Z,1002.12
2018-07-04T12:30:47.773Z,1002.12
2018-07-04T12:31:47.767Z,1002.10
2018-07-04T12:32:47.775Z,1002.13
2018-07-04T12:33:47.788Z,1002.17
2018-07-04T12:34:47.793Z,1002.16
2018-07-04T12:35:47.801Z,1002.11
2018-07-04T12:36:47.809Z,1002.12
2018-07-04T12:37:47.820Z,1002.17
2018-07-04T12:38:47.833Z,1002.14
2018-07-04T12:39:47.840Z,1002.13
2018-07-04T12:40:47.856Z,1002.09
2018-07-04T12:41:47.854Z,1002.07
2018-07-04T12:42:47.862Z,1002.07
2018-07-04T12:43:47.920Z,1002.10
2018-07-04T12:44:47.884Z,1002.06
2018-07-04T12:45:47.892Z,1002.05
2018-07-04T12:46:47.900Z,1002.06
2018-07-04T12:47:47.907Z,1002.05
2018-07-04T12:48:47.917Z,1002.07
2018-07-04T12:49:47.936Z,1002.08
2018-07-04T12:50:47.953Z,1002.11
2018-07-04T12:51:47.948Z,1002.03
2018-07-04T12:52:47.961Z,1002.08
2018-07-04T12:53:48.000Z,1002.07
2018-07-04T12:54:55.646Z,1002.12
2018-07-04T12:56:41.410Z,1002.16
2018-07-04T12:57:41.414Z,1002.20
2018-07-04T12:58:41.410Z,1002.20
2018-07-04T12:59:41.425Z,1002.19
2018-07-04T13:00:41.439Z,1002.16
2018-07-04T13:01:41.440Z,1002.21
2018-07-04T13:02:41.454Z,1002.23
2018-07-04T13:03:41.462Z,1002.19
2018-07-04T13:04:41.468Z,1002.15
2018-07-04T13:05:41.473Z,1002.24
2018-07-04T13:06:41.488Z,1002.22
2018-07-04T13:07:41.499Z,1002.21
2018-07-04T13:08:41.509Z,1002.23
2018-07-04T13:09:41.518Z,1002.26
2018-07-04T13:10:41.520Z,1002.21
2018-07-04T13:11:41.534Z,1002.19
2018-07-04T13:12:41.548Z,1002.15
2018-07-04T13:13:41.565Z,1002.21
2018-07-04T13:14:41.571Z,1002.17
2018-07-04T13:15:41.588Z,1002.24
2018-07-04T13:16:41.592Z,1002.26
2018-07-04T13:17:41.618Z,1002.20
2018-07-04T13:18:41.611Z,1002.19
2018-07-04T13:19:41.625Z,1002.23
2018-07-04T13:20:41.621Z,1002.18
2018-07-04T13:21:41.631Z,1002.20
2018-07-04T13:22:41.646Z,1002.25
2018-07-04T13:23:41.705Z,1002.23
2018-07-04T13:24:41.656Z,1002.19
2018-07-04T13:25:41.662Z,1002.17
2018-07-04T13:26:41.691Z,1002.21
2018-07-04T13:27:41.681Z,1002.23
2018-07-04T13:28:41.689Z,1002.23
2018-07-04T13:29:41.703Z,1002.30
2018-07-04T13:30:41.706Z,1002.26
2018-07-04T13:31:41.731Z,1002.25
2018-07-04T13:32:41.730Z,1002.22
2018-07-04T13:33:41.739Z,1002.22
2018-07-04T13:34:41.746Z,1002.21
2018-07-04T13:35:41.757Z,1002.27
2018-07-04T13:36:41.780Z,1002.25
2018-07-04T13:37:41.780Z,1002.25
2018-07-04T13:38:41.808Z,1002.25
2018-07-04T13:39:41.794Z,1002.26
2018-07-04T13:40:41.802Z,1002.27
2018-07-04T13:41:41.812Z,1002.26
2018-07-04T13:42:41.817Z,1002.25
2018-07-04T13:43:41.827Z,1002.24
2018-07-04T13:44:41.846Z,1002.29
2018-07-04T13:45:41.856Z,1002.30
2018-07-04T13:46:41.858Z,1002.32
2018-07-04T13:47:41.872Z,1002.35
2018-07-04T13:48:41.878Z,1002.36
2018-07-04T13:49:41.906Z,1002.36
2018-07-04T13:50:41.903Z,1002.40
2018-07-04T13:51:41.904Z,1002.38
2018-07-04T13:52:50.575Z,1002.38
2018-07-04T13:54:35.350Z,1002.30
2018-07-04T13:55:35.351Z,1002.28
2018-07-04T13:56:35.354Z,1002.27
2018-07-04T13:57:35.363Z,1002.28
2018-07-04T13:58:35.367Z,1002.28
2018-07-04T13:59:35.378Z,1002.27
2018-07-04T14:00:35.385Z,1002.28
2018-07-04T14:01:35.398Z,1002.32
2018-07-04T14:02:35.468Z,1002.33
2018-07-04T14:03:35.446Z,1002.31
2018-07-04T14:04:35.429Z,1002.30
2018-07-04T14:05:35.431Z,1002.29
2018-07-04T14:06:35.447Z,1002.31
2018-07-04T14:07:35.455Z,1002.30
2018-07-04T14:08:35.464Z,1002.29
2018-07-04T14:09:35.467Z,1002.31
2018-07-04T14:10:35.592Z,1002.34
2018-07-04T14:11:35.493Z,1002.32
2018-07-04T14:12:35.511Z,1002.30
2018-07-04T14:13:35.513Z,1002.29
2018-07-04T14:14:35.523Z,1002.26
2018-07-04T14:15:35.527Z,1002.29
2018-07-04T14:16:35.536Z,1002.26
2018-07-04T14:17:35.546Z,1002.20
2018-07-04T14:18:35.553Z,1002.22
2018-07-04T14:19:35.576Z,1002.24
2018-07-04T14:20:35.584Z,1002.22
2018-07-04T14:21:35.582Z,1002.18
2018-07-04T14:22:35.596Z,1002.20
2018-07-04T14:23:35.610Z,1002.17
2018-07-04T14:24:35.616Z,1002.16
2018-07-04T14:25:35.624Z,1002.19
2018-07-04T14:26:35.734Z,1002.15
2018-07-04T14:27:35.637Z,1002.22
2018-07-04T14:28:35.641Z,1002.25
2018-07-04T14:29:35.664Z,1002.20
2018-07-04T14:30:35.667Z,1002.24
2018-07-04T14:31:35.674Z,1002.28
2018-07-04T14:32:35.691Z,1002.31
2018-07-04T14:33:35.696Z,1002.28
2018-07-04T14:34:35.697Z,1002.26
2018-07-04T14:35:35.716Z,1002.19
2018-07-04T14:36:35.717Z,1002.11
2018-07-04T14:37:35.724Z,1002.11
2018-07-04T14:38:35.734Z,1002.01
2018-07-04T14:39:35.754Z,1002.03
2018-07-04T14:40:35.754Z,1002.04
2018-07-04T14:41:35.769Z,1002.07
2018-07-04T14:42:35.768Z,1002.02
2018-07-04T14:43:35.783Z,1001.98
2018-07-04T14:44:35.788Z,1002.02
2018-07-04T14:45:35.802Z,1001.94
2018-07-04T14:46:35.816Z,1001.92
2018-07-04T14:47:35.819Z,1001.86
2018-07-04T14:48:35.824Z,1001.73
2018-07-04T14:49:35.854Z,1001.67
2018-07-04T14:50:35.846Z,1001.66
2018-07-04T14:51:35.866Z,1001.59
2018-07-04T14:52:35.865Z,1001.59
2018-07-04T14:53:35.910Z,1001.54
2018-07-04T14:54:35.881Z,1001.57
2018-07-04T14:55:35.890Z,1001.54
2018-07-04T14:56:35.906Z,1001.57
2018-07-04T14:57:35.917Z,1001.53
2018-07-04T14:58:35.919Z,1001.56
2018-07-04T14:59:35.929Z,1001.57
2018-07-04T15:00:35.945Z,1001.58
2018-07-04T15:01:35.950Z,1001.54
2018-07-04T15:02:35.966Z,1001.55
2018-07-04T15:03:35.968Z,1001.58
2018-07-04T15:04:36.040Z,1001.55
2018-07-04T15:05:35.986Z,1001.57
2018-07-04T15:06:35.994Z,1001.61
2018-07-04T15:07:36.002Z,1001.62
2018-07-04T15:08:36.020Z,1001.58
2018-07-04T15:09:36.020Z,1001.65
2018-07-04T15:10:36.029Z,1001.66
2018-07-04T15:11:36.038Z,1001.68
2018-07-04T15:12:36.055Z,1001.70
2018-07-04T15:13:36.054Z,1001.71
2018-07-04T15:14:36.068Z,1001.66
2018-07-04T15:15:36.073Z,1001.70
2018-07-04T15:16:36.083Z,1001.69
2018-07-04T15:17:36.094Z,1001.66
2018-07-04T15:18:36.105Z,1001.69
2018-07-04T15:19:36.109Z,1001.67
2018-07-04T15:20:36.126Z,1001.70
2018-07-04T15:21:36.130Z,1001.74
2018-07-04T15:22:36.141Z,1001.72
2018-07-04T15:23:36.147Z,1001.77
2018-07-04T15:24:36.161Z,1001.83
2018-07-04T15:25:36.168Z,1001.82
2018-07-04T15:26:36.176Z,1001.91
2018-07-04T15:27:36.185Z,1001.96
2018-07-04T15:28:36.198Z,1001.97